sensor_id;sensor_type;location;lat;lon;timestamp;P1;durP1;ratioP1;P2;durP2;ratioP2
12042;SDS011;6082;49.306;12.862;2023-09-12T00:00:58;12.27;;;7.97;;
12042;SDS011;6082;49.306;12.862;2023-09-12T00:03:30;9.60;;;7.43;;
12042;SDS011;6082;49.306;12.862;2023-09-12T00:05:56;12.27;;;8.43;;
12042;SDS011;6082;49.306;12.862;2023-09-12T00:08:23;13.87;;;8.70;;
12042;SDS011;6082;49.306;12.862;2023-09-12T00:13:50;11.13;;;8.33;;
12042;SDS011;6082;49.306;12.862;2023-09-12T00:16:16;10.70;;;8.10;;
12042;SDS011;6082;49.306;12.862;2023-09-12T00:18:42;11.07;;;7.40;;
12042;SDS011;6082;49.306;12.862;2023-09-12T00:21:08;11.10;;;7.67;;
12042;SDS011;6082;49.306;12.862;2023-09-12T00:23:34;10.70;;;7.90;;
12042;SDS011;6082;49.306;12.862;2023-09-12T00:26:00;11.23;;;8.27;;
12042;SDS011;6082;49.306;12.862;2023-09-12T00:28:25;12.17;;;8.47;;
12042;SDS011;6082;49.306;12.862;2023-09-12T00:30:51;10.97;;;7.93;;
12042;SDS011;6082;49.306;12.862;2023-09-12T00:33:17;11.77;;;8.10;;
12042;SDS011;6082;49.306;12.862;2023-09-12T00:35:44;10.43;;;7.67;;
12042;SDS011;6082;49.306;12.862;2023-09-12T00:38:10;12.37;;;8.00;;
12042;SDS011;6082;49.306;12.862;2023-09-12T00:40:35;12.00;;;8.53;;
12042;SDS011;6082;49.306;12.862;2023-09-12T00:43:02;11.07;;;7.90;;
12042;SDS011;6082;49.306;12.862;2023-09-12T00:45:28;12.07;;;8.97;;
12042;SDS011;6082;49.306;12.862;2023-09-12T00:47:54;10.90;;;8.07;;
12042;SDS011;6082;49.306;12.862;2023-09-12T00:50:23;14.97;;;8.37;;
12042;SDS011;6082;49.306;12.862;2023-09-12T00:52:50;12.67;;;8.23;;
12042;SDS011;6082;49.306;12.862;2023-09-12T00:55:18;10.10;;;7.53;;
12042;SDS011;6082;49.306;12.862;2023-09-12T00:57:44;10.00;;;7.83;;
12042;SDS011;6082;49.306;12.862;2023-09-12T01:00:11;11.13;;;8.23;;
12042;SDS011;6082;49.306;12.862;2023-09-12T01:02:38;10.17;;;8.17;;
12042;SDS011;6082;49.306;12.862;2023-09-12T01:05:08;11.27;;;9.03;;
12042;SDS011;6082;49.306;12.862;2023-09-12T01:07:35;12.20;;;8.50;;
12042;SDS011;6082;49.306;12.862;2023-09-12T01:10:02;11.47;;;8.83;;
12042;SDS011;6082;49.306;12.862;2023-09-12T01:12:28;11.80;;;8.63;;
12042;SDS011;6082;49.306;12.862;2023-09-12T01:14:54;11.93;;;8.40;;
12042;SDS011;6082;49.306;12.862;2023-09-12T01:17:21;14.27;;;9.23;;
12042;SDS011;6082;49.306;12.862;2023-09-12T01:19:47;10.90;;;8.73;;
12042;SDS011;6082;49.306;12.862;2023-09-12T01:28:01;10.43;;;7.77;;
12042;SDS011;6082;49.306;12.862;2023-09-12T01:30:31;11.57;;;8.63;;
12042;SDS011;6082;49.306;12.862;2023-09-12T01:32:59;12.83;;;8.80;;
12042;SDS011;6082;49.306;12.862;2023-09-12T01:35:26;10.17;;;7.43;;
12042;SDS011;6082;49.306;12.862;2023-09-12T01:37:51;11.90;;;8.53;;
12042;SDS011;6082;49.306;12.862;2023-09-12T01:40:17;13.60;;;8.40;;
12042;SDS011;6082;49.306;12.862;2023-09-12T01:42:52;10.77;;;7.80;;
12042;SDS011;6082;49.306;12.862;2023-09-12T01:45:19;10.40;;;7.73;;
12042;SDS011;6082;49.306;12.862;2023-09-12T01:47:45;11.33;;;8.10;;
12042;SDS011;6082;49.306;12.862;2023-09-12T01:50:14;10.40;;;8.27;;
12042;SDS011;6082;49.306;12.862;2023-09-12T01:52:41;14.30;;;8.40;;
12042;SDS011;6082;49.306;12.862;2023-09-12T01:55:07;9.43;;;8.00;;
12042;SDS011;6082;49.306;12.862;2023-09-12T01:57:35;12.57;;;8.50;;
12042;SDS011;6082;49.306;12.862;2023-09-12T02:00:02;10.27;;;7.57;;
12042;SDS011;6082;49.306;12.862;2023-09-12T02:02:29;10.80;;;8.00;;
12042;SDS011;6082;49.306;12.862;2023-09-12T02:07:37;10.57;;;7.93;;
12042;SDS011;6082;49.306;12.862;2023-09-12T02:10:04;12.23;;;8.77;;
12042;SDS011;6082;49.306;12.862;2023-09-12T02:12:33;11.17;;;8.50;;
12042;SDS011;6082;49.306;12.862;2023-09-12T02:14:59;11.07;;;8.13;;
12042;SDS011;6082;49.306;12.862;2023-09-12T02:17:25;12.70;;;7.73;;
12042;SDS011;6082;49.306;12.862;2023-09-12T02:19:50;13.50;;;8.80;;
12042;SDS011;6082;49.306;12.862;2023-09-12T02:22:16;13.03;;;8.87;;
12042;SDS011;6082;49.306;12.862;2023-09-12T02:24:42;11.40;;;8.53;;
12042;SDS011;6082;49.306;12.862;2023-09-12T02:27:07;9.80;;;7.30;;
12042;SDS011;6082;49.306;12.862;2023-09-12T02:29:34;13.63;;;8.77;;
12042;SDS011;6082;49.306;12.862;2023-09-12T02:32:00;12.27;;;9.20;;
12042;SDS011;6082;49.306;12.862;2023-09-12T02:34:25;12.80;;;8.20;;
12042;SDS011;6082;49.306;12.862;2023-09-12T02:36:51;9.97;;;7.67;;
12042;SDS011;6082;49.306;12.862;2023-09-12T02:39:17;12.70;;;8.53;;
12042;SDS011;6082;49.306;12.862;2023-09-12T02:41:43;12.63;;;8.37;;
12042;SDS011;6082;49.306;12.862;2023-09-12T02:44:08;13.07;;;8.67;;
12042;SDS011;6082;49.306;12.862;2023-09-12T02:46:34;13.67;;;9.37;;
12042;SDS011;6082;49.306;12.862;2023-09-12T02:49:01;13.47;;;9.00;;
12042;SDS011;6082;49.306;12.862;2023-09-12T02:51:27;12.80;;;9.10;;
12042;SDS011;6082;49.306;12.862;2023-09-12T02:53:52;11.43;;;8.47;;
12042;SDS011;6082;49.306;12.862;2023-09-12T02:56:18;10.97;;;8.63;;
12042;SDS011;6082;49.306;12.862;2023-09-12T02:58:47;12.43;;;9.20;;
12042;SDS011;6082;49.306;12.862;2023-09-12T03:01:17;11.40;;;8.87;;
12042;SDS011;6082;49.306;12.862;2023-09-12T03:03:46;11.97;;;8.83;;
12042;SDS011;6082;49.306;12.862;2023-09-12T03:06:13;11.17;;;8.20;;
12042;SDS011;6082;49.306;12.862;2023-09-12T03:08:42;11.97;;;8.97;;
12042;SDS011;6082;49.306;12.862;2023-09-12T03:11:09;12.47;;;9.00;;
12042;SDS011;6082;49.306;12.862;2023-09-12T03:13:36;10.87;;;8.03;;
12042;SDS011;6082;49.306;12.862;2023-09-12T03:16:02;11.03;;;7.73;;
12042;SDS011;6082;49.306;12.862;2023-09-12T03:18:28;10.53;;;8.43;;
12042;SDS011;6082;49.306;12.862;2023-09-12T03:20:54;10.83;;;8.03;;
12042;SDS011;6082;49.306;12.862;2023-09-12T03:23:20;12.50;;;8.50;;
12042;SDS011;6082;49.306;12.862;2023-09-12T03:25:46;11.90;;;8.40;;
12042;SDS011;6082;49.306;12.862;2023-09-12T03:28:11;11.00;;;8.07;;
12042;SDS011;6082;49.306;12.862;2023-09-12T03:30:37;10.37;;;7.70;;
12042;SDS011;6082;49.306;12.862;2023-09-12T03:33:04;12.17;;;8.17;;
12042;SDS011;6082;49.306;12.862;2023-09-12T03:35:33;10.83;;;8.47;;
12042;SDS011;6082;49.306;12.862;2023-09-12T03:37:59;12.10;;;7.93;;
12042;SDS011;6082;49.306;12.862;2023-09-12T03:40:27;11.10;;;8.17;;
12042;SDS011;6082;49.306;12.862;2023-09-12T03:42:55;11.67;;;9.00;;
12042;SDS011;6082;49.306;12.862;2023-09-12T03:45:21;11.53;;;8.50;;
12042;SDS011;6082;49.306;12.862;2023-09-12T03:47:47;11.10;;;7.93;;
12042;SDS011;6082;49.306;12.862;2023-09-12T03:50:13;11.57;;;8.67;;
12042;SDS011;6082;49.306;12.862;2023-09-12T03:52:39;12.37;;;8.90;;
12042;SDS011;6082;49.306;12.862;2023-09-12T03:55:04;10.07;;;7.63;;
12042;SDS011;6082;49.306;12.862;2023-09-12T03:57:30;11.10;;;7.90;;
12042;SDS011;6082;49.306;12.862;2023-09-12T03:59:56;10.53;;;8.00;;
12042;SDS011;6082;49.306;12.862;2023-09-12T04:02:22;10.00;;;7.43;;
12042;SDS011;6082;49.306;12.862;2023-09-12T04:04:48;11.73;;;8.50;;
12042;SDS011;6082;49.306;12.862;2023-09-12T04:07:14;9.83;;;7.73;;
12042;SDS011;6082;49.306;12.862;2023-09-12T04:09:40;11.00;;;8.23;;
12042;SDS011;6082;49.306;12.862;2023-09-12T04:12:06;12.00;;;7.93;;
12042;SDS011;6082;49.306;12.862;2023-09-12T04:14:32;13.07;;;8.87;;
12042;SDS011;6082;49.306;12.862;2023-09-12T04:16:57;13.43;;;9.00;;
12042;SDS011;6082;49.306;12.862;2023-09-12T04:19:24;12.67;;;8.40;;
12042;SDS011;6082;49.306;12.862;2023-09-12T04:21:50;12.43;;;8.87;;
12042;SDS011;6082;49.306;12.862;2023-09-12T04:24:16;11.97;;;9.00;;
12042;SDS011;6082;49.306;12.862;2023-09-12T04:26:42;13.27;;;8.07;;
12042;SDS011;6082;49.306;12.862;2023-09-12T04:29:10;14.53;;;9.03;;
12042;SDS011;6082;49.306;12.862;2023-09-12T04:31:36;15.73;;;8.43;;
12042;SDS011;6082;49.306;12.862;2023-09-12T04:34:01;11.90;;;8.50;;
12042;SDS011;6082;49.306;12.862;2023-09-12T04:36:27;12.77;;;9.03;;
12042;SDS011;6082;49.306;12.862;2023-09-12T04:38:53;11.10;;;8.80;;
12042;SDS011;6082;49.306;12.862;2023-09-12T04:41:19;12.03;;;8.73;;
12042;SDS011;6082;49.306;12.862;2023-09-12T04:43:44;11.90;;;9.03;;
12042;SDS011;6082;49.306;12.862;2023-09-12T04:46:11;12.20;;;8.60;;
12042;SDS011;6082;49.306;12.862;2023-09-12T04:48:37;13.73;;;9.03;;
12042;SDS011;6082;49.306;12.862;2023-09-12T04:51:03;13.13;;;9.23;;
12042;SDS011;6082;49.306;12.862;2023-09-12T04:53:29;10.53;;;7.50;;
12042;SDS011;6082;49.306;12.862;2023-09-12T04:56:01;10.50;;;7.37;;
12042;SDS011;6082;49.306;12.862;2023-09-12T04:58:28;11.23;;;8.23;;
12042;SDS011;6082;49.306;12.862;2023-09-12T05:00:54;11.67;;;7.73;;
12042;SDS011;6082;49.306;12.862;2023-09-12T05:03:21;11.77;;;8.17;;
12042;SDS011;6082;49.306;12.862;2023-09-12T05:05:47;10.63;;;7.77;;
12042;SDS011;6082;49.306;12.862;2023-09-12T05:08:13;12.57;;;8.23;;
12042;SDS011;6082;49.306;12.862;2023-09-12T05:10:39;10.17;;;7.50;;
12042;SDS011;6082;49.306;12.862;2023-09-12T05:13:05;11.63;;;8.80;;
12042;SDS011;6082;49.306;12.862;2023-09-12T05:15:31;11.60;;;8.67;;
12042;SDS011;6082;49.306;12.862;2023-09-12T05:17:56;13.70;;;8.77;;
12042;SDS011;6082;49.306;12.862;2023-09-12T05:20:22;11.67;;;8.17;;
12042;SDS011;6082;49.306;12.862;2023-09-12T05:22:48;11.83;;;8.47;;
12042;SDS011;6082;49.306;12.862;2023-09-12T05:25:13;12.67;;;9.10;;
12042;SDS011;6082;49.306;12.862;2023-09-12T05:27:39;13.87;;;9.33;;
12042;SDS011;6082;49.306;12.862;2023-09-12T05:30:05;13.23;;;8.80;;
12042;SDS011;6082;49.306;12.862;2023-09-12T05:32:31;11.97;;;8.90;;
12042;SDS011;6082;49.306;12.862;2023-09-12T05:34:57;12.07;;;8.93;;
12042;SDS011;6082;49.306;12.862;2023-09-12T05:37:22;15.03;;;9.33;;
12042;SDS011;6082;49.306;12.862;2023-09-12T05:39:48;12.30;;;9.37;;
12042;SDS011;6082;49.306;12.862;2023-09-12T05:42:14;15.53;;;9.93;;
12042;SDS011;6082;49.306;12.862;2023-09-12T05:44:45;13.63;;;9.47;;
12042;SDS011;6082;49.306;12.862;2023-09-12T05:47:12;12.90;;;10.00;;
12042;SDS011;6082;49.306;12.862;2023-09-12T05:49:38;14.20;;;10.00;;
12042;SDS011;6082;49.306;12.862;2023-09-12T05:52:03;12.63;;;9.00;;
12042;SDS011;6082;49.306;12.862;2023-09-12T05:54:29;11.80;;;8.77;;
12042;SDS011;6082;49.306;12.862;2023-09-12T05:56:55;13.60;;;9.83;;
12042;SDS011;6082;49.306;12.862;2023-09-12T05:59:21;14.90;;;9.43;;
12042;SDS011;6082;49.306;12.862;2023-09-12T06:01:46;15.27;;;9.80;;
12042;SDS011;6082;49.306;12.862;2023-09-12T06:04:13;12.40;;;9.23;;
12042;SDS011;6082;49.306;12.862;2023-09-12T06:06:39;13.40;;;9.17;;
12042;SDS011;6082;49.306;12.862;2023-09-12T06:09:06;13.37;;;9.67;;
12042;SDS011;6082;49.306;12.862;2023-09-12T06:11:31;14.53;;;9.17;;
12042;SDS011;6082;49.306;12.862;2023-09-12T06:13:57;13.33;;;9.20;;
12042;SDS011;6082;49.306;12.862;2023-09-12T06:16:23;14.03;;;9.63;;
12042;SDS011;6082;49.306;12.862;2023-09-12T06:18:49;13.37;;;8.97;;
12042;SDS011;6082;49.306;12.862;2023-09-12T06:21:15;14.33;;;10.20;;
12042;SDS011;6082;49.306;12.862;2023-09-12T06:23:40;14.03;;;10.37;;
12042;SDS011;6082;49.306;12.862;2023-09-12T06:26:06;13.43;;;9.63;;
12042;SDS011;6082;49.306;12.862;2023-09-12T06:28:32;13.77;;;9.93;;
12042;SDS011;6082;49.306;12.862;2023-09-12T06:30:57;15.47;;;10.53;;
12042;SDS011;6082;49.306;12.862;2023-09-12T06:33:24;13.03;;;10.17;;
12042;SDS011;6082;49.306;12.862;2023-09-12T06:35:51;16.30;;;10.77;;
12042;SDS011;6082;49.306;12.862;2023-09-12T06:38:18;13.97;;;10.73;;
12042;SDS011;6082;49.306;12.862;2023-09-12T06:40:44;14.70;;;10.67;;
12042;SDS011;6082;49.306;12.862;2023-09-12T06:43:12;15.47;;;10.73;;
12042;SDS011;6082;49.306;12.862;2023-09-12T06:45:40;14.83;;;10.20;;
12042;SDS011;6082;49.306;12.862;2023-09-12T06:48:06;13.93;;;10.57;;
12042;SDS011;6082;49.306;12.862;2023-09-12T06:50:32;16.37;;;10.60;;
12042;SDS011;6082;49.306;12.862;2023-09-12T06:52:58;13.03;;;9.83;;
12042;SDS011;6082;49.306;12.862;2023-09-12T06:55:23;13.43;;;10.17;;
12042;SDS011;6082;49.306;12.862;2023-09-12T06:57:49;15.03;;;10.33;;
12042;SDS011;6082;49.306;12.862;2023-09-12T07:00:15;13.17;;;10.00;;
12042;SDS011;6082;49.306;12.862;2023-09-12T07:02:42;15.30;;;10.43;;
12042;SDS011;6082;49.306;12.862;2023-09-12T07:05:08;13.53;;;10.40;;
12042;SDS011;6082;49.306;12.862;2023-09-12T07:07:33;14.00;;;10.07;;
12042;SDS011;6082;49.306;12.862;2023-09-12T07:09:59;13.30;;;10.10;;
12042;SDS011;6082;49.306;12.862;2023-09-12T07:12:28;12.50;;;9.63;;
12042;SDS011;6082;49.306;12.862;2023-09-12T07:14:54;13.33;;;10.10;;
12042;SDS011;6082;49.306;12.862;2023-09-12T07:17:21;14.27;;;10.57;;
12042;SDS011;6082;49.306;12.862;2023-09-12T07:19:47;12.90;;;10.10;;
12042;SDS011;6082;49.306;12.862;2023-09-12T07:22:12;14.60;;;9.97;;
12042;SDS011;6082;49.306;12.862;2023-09-12T07:24:38;14.17;;;9.90;;
12042;SDS011;6082;49.306;12.862;2023-09-12T07:27:04;12.00;;;9.33;;
12042;SDS011;6082;49.306;12.862;2023-09-12T07:29:30;13.30;;;9.87;;
12042;SDS011;6082;49.306;12.862;2023-09-12T07:31:56;13.53;;;10.17;;
12042;SDS011;6082;49.306;12.862;2023-09-12T07:34:23;14.47;;;10.73;;
12042;SDS011;6082;49.306;12.862;2023-09-12T07:36:49;14.80;;;10.27;;
12042;SDS011;6082;49.306;12.862;2023-09-12T07:39:19;13.67;;;9.23;;
12042;SDS011;6082;49.306;12.862;2023-09-12T07:41:45;12.03;;;9.70;;
12042;SDS011;6082;49.306;12.862;2023-09-12T07:44:11;10.90;;;8.87;;
12042;SDS011;6082;49.306;12.862;2023-09-12T07:46:39;13.07;;;9.73;;
12042;SDS011;6082;49.306;12.862;2023-09-12T07:49:05;11.20;;;8.90;;
12042;SDS011;6082;49.306;12.862;2023-09-12T07:51:33;11.93;;;9.63;;
12042;SDS011;6082;49.306;12.862;2023-09-12T07:53:58;10.70;;;8.70;;
12042;SDS011;6082;49.306;12.862;2023-09-12T07:56:24;13.40;;;8.87;;
12042;SDS011;6082;49.306;12.862;2023-09-12T07:58:50;12.07;;;9.60;;
12042;SDS011;6082;49.306;12.862;2023-09-12T08:01:15;11.47;;;9.30;;
12042;SDS011;6082;49.306;12.862;2023-09-12T08:03:41;13.40;;;9.80;;
12042;SDS011;6082;49.306;12.862;2023-09-12T08:06:08;12.93;;;9.13;;
12042;SDS011;6082;49.306;12.862;2023-09-12T08:08:34;10.50;;;7.70;;
12042;SDS011;6082;49.306;12.862;2023-09-12T08:11:00;10.87;;;8.33;;
12042;SDS011;6082;49.306;12.862;2023-09-12T08:13:26;10.37;;;9.00;;
12042;SDS011;6082;49.306;12.862;2023-09-12T08:15:53;11.23;;;8.00;;
12042;SDS011;6082;49.306;12.862;2023-09-12T08:18:19;10.90;;;8.37;;
12042;SDS011;6082;49.306;12.862;2023-09-12T08:20:44;11.47;;;8.30;;
12042;SDS011;6082;49.306;12.862;2023-09-12T08:23:10;10.43;;;8.80;;
12042;SDS011;6082;49.306;12.862;2023-09-12T08:25:36;12.20;;;8.87;;
12042;SDS011;6082;49.306;12.862;2023-09-12T08:28:02;11.07;;;8.20;;
12042;SDS011;6082;49.306;12.862;2023-09-12T08:30:28;9.77;;;8.47;;
12042;SDS011;6082;49.306;12.862;2023-09-12T08:32:57;11.47;;;8.20;;
12042;SDS011;6082;49.306;12.862;2023-09-12T08:35:23;11.97;;;8.73;;
12042;SDS011;6082;49.306;12.862;2023-09-12T08:37:51;9.50;;;7.63;;
12042;SDS011;6082;49.306;12.862;2023-09-12T08:40:17;10.53;;;8.40;;
12042;SDS011;6082;49.306;12.862;2023-09-12T08:42:43;8.93;;;7.80;;
12042;SDS011;6082;49.306;12.862;2023-09-12T08:47:49;9.90;;;8.23;;
12042;SDS011;6082;49.306;12.862;2023-09-12T08:50:17;11.27;;;7.97;;
12042;SDS011;6082;49.306;12.862;2023-09-12T08:52:44;11.50;;;8.63;;
12042;SDS011;6082;49.306;12.862;2023-09-12T08:55:11;9.27;;;7.90;;
12042;SDS011;6082;49.306;12.862;2023-09-12T08:57:38;10.50;;;7.50;;
12042;SDS011;6082;49.306;12.862;2023-09-12T09:00:05;9.80;;;8.10;;
12042;SDS011;6082;49.306;12.862;2023-09-12T09:02:34;9.70;;;7.50;;
12042;SDS011;6082;49.306;12.862;2023-09-12T09:05:04;8.63;;;7.13;;
12042;SDS011;6082;49.306;12.862;2023-09-12T09:07:35;10.73;;;7.80;;
12042;SDS011;6082;49.306;12.862;2023-09-12T09:10:03;8.80;;;7.40;;
12042;SDS011;6082;49.306;12.862;2023-09-12T09:12:35;7.90;;;7.10;;
12042;SDS011;6082;49.306;12.862;2023-09-12T09:17:54;8.60;;;7.47;;
12042;SDS011;6082;49.306;12.862;2023-09-12T09:20:33;14.00;;;8.17;;
12042;SDS011;6082;49.306;12.862;2023-09-12T09:23:00;9.47;;;7.53;;
12042;SDS011;6082;49.306;12.862;2023-09-12T09:25:34;8.37;;;7.37;;
12042;SDS011;6082;49.306;12.862;2023-09-12T09:28:15;9.17;;;7.47;;
12042;SDS011;6082;49.306;12.862;2023-09-12T09:30:45;8.60;;;7.30;;
12042;SDS011;6082;49.306;12.862;2023-09-12T09:33:13;8.77;;;7.87;;
12042;SDS011;6082;49.306;12.862;2023-09-12T09:35:42;8.00;;;7.20;;
12042;SDS011;6082;49.306;12.862;2023-09-12T09:38:10;8.83;;;7.33;;
12042;SDS011;6082;49.306;12.862;2023-09-12T09:40:41;10.17;;;8.37;;
12042;SDS011;6082;49.306;12.862;2023-09-12T09:43:10;8.73;;;7.20;;
12042;SDS011;6082;49.306;12.862;2023-09-12T09:45:45;8.17;;;6.93;;
12042;SDS011;6082;49.306;12.862;2023-09-12T09:48:17;8.07;;;7.20;;
12042;SDS011;6082;49.306;12.862;2023-09-12T09:50:44;8.63;;;7.80;;
12042;SDS011;6082;49.306;12.862;2023-09-12T09:53:10;7.93;;;7.13;;
12042;SDS011;6082;49.306;12.862;2023-09-12T09:55:35;8.60;;;6.80;;
12042;SDS011;6082;49.306;12.862;2023-09-12T09:58:02;9.57;;;7.63;;
12042;SDS011;6082;49.306;12.862;2023-09-12T10:00:30;9.43;;;7.60;;
12042;SDS011;6082;49.306;12.862;2023-09-12T10:02:59;9.17;;;7.47;;
12042;SDS011;6082;49.306;12.862;2023-09-12T10:05:26;10.73;;;7.90;;
12042;SDS011;6082;49.306;12.862;2023-09-12T10:07:53;8.10;;;6.93;;
12042;SDS011;6082;49.306;12.862;2023-09-12T10:10:22;8.03;;;7.20;;
12042;SDS011;6082;49.306;12.862;2023-09-12T10:12:57;10.80;;;7.37;;
12042;SDS011;6082;49.306;12.862;2023-09-12T10:15:25;9.87;;;6.90;;
12042;SDS011;6082;49.306;12.862;2023-09-12T10:17:58;10.07;;;7.67;;
12042;SDS011;6082;49.306;12.862;2023-09-12T10:20:33;8.73;;;6.77;;
12042;SDS011;6082;49.306;12.862;2023-09-12T10:23:23;7.93;;;7.13;;
12042;SDS011;6082;49.306;12.862;2023-09-12T10:26:01;8.57;;;7.63;;
12042;SDS011;6082;49.306;12.862;2023-09-12T10:28:28;9.13;;;7.37;;
12042;SDS011;6082;49.306;12.862;2023-09-12T10:30:55;9.03;;;7.13;;
12042;SDS011;6082;49.306;12.862;2023-09-12T10:33:24;7.47;;;6.77;;
12042;SDS011;6082;49.306;12.862;2023-09-12T10:35:52;10.30;;;7.97;;
12042;SDS011;6082;49.306;12.862;2023-09-12T10:38:19;9.33;;;7.97;;
12042;SDS011;6082;49.306;12.862;2023-09-12T10:40:47;9.17;;;7.00;;
12042;SDS011;6082;49.306;12.862;2023-09-12T10:43:14;9.53;;;8.43;;
12042;SDS011;6082;49.306;12.862;2023-09-12T10:45:40;9.43;;;7.43;;
12042;SDS011;6082;49.306;12.862;2023-09-12T10:48:06;8.43;;;7.47;;
12042;SDS011;6082;49.306;12.862;2023-09-12T10:50:35;8.40;;;7.47;;
12042;SDS011;6082;49.306;12.862;2023-09-12T10:53:13;9.00;;;6.90;;
12042;SDS011;6082;49.306;12.862;2023-09-12T10:55:57;8.10;;;7.20;;
12042;SDS011;6082;49.306;12.862;2023-09-12T11:01:36;9.57;;;7.68;;
12042;SDS011;6082;49.306;12.862;2023-09-12T11:06:44;8.93;;;6.90;;
12042;SDS011;6082;49.306;12.862;2023-09-12T11:11:39;7.80;;;7.00;;
12042;SDS011;6082;49.306;12.862;2023-09-12T11:14:07;9.27;;;7.25;;
12042;SDS011;6082;49.306;12.862;2023-09-12T11:16:33;8.15;;;7.25;;
12042;SDS011;6082;49.306;12.862;2023-09-12T11:19:16;7.47;;;6.67;;
12042;SDS011;6082;49.306;12.862;2023-09-12T11:21:51;7.35;;;6.28;;
12042;SDS011;6082;49.306;12.862;2023-09-12T11:24:19;7.43;;;6.53;;
12042;SDS011;6082;49.306;12.862;2023-09-12T11:26:58;7.53;;;6.70;;
12042;SDS011;6082;49.306;12.862;2023-09-12T11:29:36;8.52;;;7.15;;
12042;SDS011;6082;49.306;12.862;2023-09-12T11:32:04;7.60;;;6.07;;
12042;SDS011;6082;49.306;12.862;2023-09-12T11:34:52;7.68;;;6.75;;
12042;SDS011;6082;49.306;12.862;2023-09-12T11:37:26;6.85;;;6.15;;
12042;SDS011;6082;49.306;12.862;2023-09-12T11:39:53;8.15;;;6.20;;
12042;SDS011;6082;49.306;12.862;2023-09-12T11:42:19;7.40;;;5.95;;
12042;SDS011;6082;49.306;12.862;2023-09-12T11:44:48;7.45;;;6.40;;
12042;SDS011;6082;49.306;12.862;2023-09-12T11:47:15;7.00;;;6.22;;
12042;SDS011;6082;49.306;12.862;2023-09-12T11:49:41;7.07;;;6.13;;
12042;SDS011;6082;49.306;12.862;2023-09-12T11:52:08;6.93;;;5.88;;
12042;SDS011;6082;49.306;12.862;2023-09-12T11:54:38;6.55;;;5.80;;
12042;SDS011;6082;49.306;12.862;2023-09-12T11:57:07;6.72;;;5.60;;
12042;SDS011;6082;49.306;12.862;2023-09-12T11:59:36;7.07;;;6.35;;
12042;SDS011;6082;49.306;12.862;2023-09-12T12:02:05;7.25;;;6.13;;
12042;SDS011;6082;49.306;12.862;2023-09-12T12:04:33;8.43;;;6.20;;
12042;SDS011;6082;49.306;12.862;2023-09-12T12:06:59;7.72;;;6.22;;
12042;SDS011;6082;49.306;12.862;2023-09-12T12:09:26;6.85;;;6.07;;
12042;SDS011;6082;49.306;12.862;2023-09-12T12:11:52;7.18;;;6.07;;
12042;SDS011;6082;49.306;12.862;2023-09-12T12:14:18;8.02;;;6.07;;
12042;SDS011;6082;49.306;12.862;2023-09-12T12:16:47;6.68;;;6.03;;
12042;SDS011;6082;49.306;12.862;2023-09-12T12:19:13;8.40;;;6.22;;
12042;SDS011;6082;49.306;12.862;2023-09-12T12:21:42;7.13;;;6.13;;
12042;SDS011;6082;49.306;12.862;2023-09-12T12:24:13;7.47;;;6.72;;
12042;SDS011;6082;49.306;12.862;2023-09-12T12:26:43;8.98;;;6.40;;
12042;SDS011;6082;49.306;12.862;2023-09-12T12:29:09;7.13;;;6.40;;
12042;SDS011;6082;49.306;12.862;2023-09-12T12:31:36;7.95;;;6.63;;
12042;SDS011;6082;49.306;12.862;2023-09-12T12:34:04;6.97;;;6.28;;
12042;SDS011;6082;49.306;12.862;2023-09-12T12:36:30;7.43;;;6.72;;
12042;SDS011;6082;49.306;12.862;2023-09-12T12:38:56;7.40;;;6.50;;
12042;SDS011;6082;49.306;12.862;2023-09-12T12:41:25;7.13;;;6.10;;
12042;SDS011;6082;49.306;12.862;2023-09-12T12:43:53;7.28;;;6.55;;
12042;SDS011;6082;49.306;12.862;2023-09-12T12:46:24;6.50;;;5.78;;
12042;SDS011;6082;49.306;12.862;2023-09-12T12:48:50;8.38;;;7.15;;
12042;SDS011;6082;49.306;12.862;2023-09-12T12:51:19;7.90;;;6.47;;
12042;SDS011;6082;49.306;12.862;2023-09-12T12:53:54;7.93;;;7.13;;
12042;SDS011;6082;49.306;12.862;2023-09-12T12:56:21;8.18;;;6.53;;
12042;SDS011;6082;49.306;12.862;2023-09-12T12:58:49;8.63;;;6.78;;
12042;SDS011;6082;49.306;12.862;2023-09-12T13:01:23;7.88;;;7.07;;
12042;SDS011;6082;49.306;12.862;2023-09-12T13:03:49;7.03;;;6.32;;
12042;SDS011;6082;49.306;12.862;2023-09-12T13:06:16;7.53;;;6.78;;
12042;SDS011;6082;49.306;12.862;2023-09-12T13:08:43;7.30;;;6.25;;
12042;SDS011;6082;49.306;12.862;2023-09-12T13:11:10;7.22;;;6.47;;
12042;SDS011;6082;49.306;12.862;2023-09-12T13:13:37;6.18;;;5.55;;
12042;SDS011;6082;49.306;12.862;2023-09-12T13:16:04;6.85;;;6.15;;
12042;SDS011;6082;49.306;12.862;2023-09-12T13:18:34;7.90;;;6.57;;
12042;SDS011;6082;49.306;12.862;2023-09-12T13:21:00;6.50;;;5.70;;
12042;SDS011;6082;49.306;12.862;2023-09-12T13:23:26;7.53;;;6.38;;
12042;SDS011;6082;49.306;12.862;2023-09-12T13:25:52;8.48;;;6.68;;
12042;SDS011;6082;49.306;12.862;2023-09-12T13:28:18;6.85;;;5.78;;
12042;SDS011;6082;49.306;12.862;2023-09-12T13:30:44;7.85;;;6.45;;
12042;SDS011;6082;49.306;12.862;2023-09-12T13:33:13;7.47;;;6.63;;
12042;SDS011;6082;49.306;12.862;2023-09-12T13:35:45;6.60;;;6.00;;
12042;SDS011;6082;49.306;12.862;2023-09-12T13:38:11;6.90;;;6.20;;
12042;SDS011;6082;49.306;12.862;2023-09-12T13:40:40;7.43;;;6.72;;
12042;SDS011;6082;49.306;12.862;2023-09-12T13:43:07;7.07;;;6.38;;
12042;SDS011;6082;49.306;12.862;2023-09-12T13:45:33;7.18;;;6.32;;
12042;SDS011;6082;49.306;12.862;2023-09-12T13:47:59;7.68;;;6.50;;
12042;SDS011;6082;49.306;12.862;2023-09-12T13:50:26;7.32;;;6.63;;
12042;SDS011;6082;49.306;12.862;2023-09-12T13:52:55;6.85;;;6.15;;
12042;SDS011;6082;49.306;12.862;2023-09-12T13:55:22;7.47;;;6.63;;
12042;SDS011;6082;49.306;12.862;2023-09-12T13:57:48;7.78;;;6.50;;
12042;SDS011;6082;49.306;12.862;2023-09-12T14:00:14;9.50;;;6.53;;
12042;SDS011;6082;49.306;12.862;2023-09-12T14:02:40;8.10;;;6.25;;
12042;SDS011;6082;49.306;12.862;2023-09-12T14:05:05;7.28;;;5.95;;
12042;SDS011;6082;49.306;12.862;2023-09-12T14:07:31;9.45;;;6.43;;
12042;SDS011;6082;49.306;12.862;2023-09-12T14:09:57;7.05;;;6.35;;
12042;SDS011;6082;49.306;12.862;2023-09-12T14:12:23;8.57;;;6.00;;
12042;SDS011;6082;49.306;12.862;2023-09-12T14:14:51;8.43;;;6.10;;
12042;SDS011;6082;49.306;12.862;2023-09-12T14:17:17;7.82;;;7.05;;
12042;SDS011;6082;49.306;12.862;2023-09-12T14:19:43;6.50;;;5.88;;
12042;SDS011;6082;49.306;12.862;2023-09-12T14:22:08;7.13;;;6.38;;
12042;SDS011;6082;49.306;12.862;2023-09-12T14:24:34;7.40;;;6.47;;
12042;SDS011;6082;49.306;12.862;2023-09-12T14:27:00;7.88;;;6.70;;
12042;SDS011;6082;49.306;12.862;2023-09-12T14:29:25;7.97;;;6.55;;
12042;SDS011;6082;49.306;12.862;2023-09-12T14:31:54;7.93;;;6.45;;
12042;SDS011;6082;49.306;12.862;2023-09-12T14:34:23;6.97;;;6.28;;
12042;SDS011;6082;49.306;12.862;2023-09-12T14:36:53;7.80;;;6.93;;
12042;SDS011;6082;49.306;12.862;2023-09-12T14:39:23;7.65;;;6.40;;
12042;SDS011;6082;49.306;12.862;2023-09-12T14:41:49;7.38;;;6.50;;
12042;SDS011;6082;49.306;12.862;2023-09-12T14:46:46;7.22;;;6.43;;
12042;SDS011;6082;49.306;12.862;2023-09-12T14:49:11;7.78;;;6.28;;
12042;SDS011;6082;49.306;12.862;2023-09-12T14:51:37;7.55;;;6.20;;
12042;SDS011;6082;49.306;12.862;2023-09-12T14:54:03;6.88;;;6.18;;
12042;SDS011;6082;49.306;12.862;2023-09-12T14:56:29;8.25;;;6.25;;
12042;SDS011;6082;49.306;12.862;2023-09-12T14:58:56;7.05;;;6.35;;
12042;SDS011;6082;49.306;12.862;2023-09-12T15:01:21;7.22;;;6.13;;
12042;SDS011;6082;49.306;12.862;2023-09-12T15:03:49;7.43;;;6.53;;
12042;SDS011;6082;49.306;12.862;2023-09-12T15:06:16;8.20;;;6.53;;